createdAt,value
2023-06-03T00:01:13.471Z,79.66
2023-06-03T00:03:40.684Z,79.21
2023-06-03T00:06:08.023Z,79.45
2023-06-03T00:08:35.214Z,79.58
2023-06-03T00:11:02.331Z,79.72
2023-06-03T00:13:29.755Z,79.43
2023-06-03T00:15:59.450Z,79.60
2023-06-03T00:18:28.813Z,79.30
2023-06-03T00:20:56.570Z,79.79
2023-06-03T00:23:25.132Z,79.57
2023-06-03T00:25:52.691Z,79.51
2023-06-03T00:28:25.505Z,79.78
2023-06-03T00:30:55.445Z,79.74
2023-06-03T00:33:22.732Z,80.07
2023-06-03T00:35:50.033Z,80.10
2023-06-03T00:38:17.976Z,79.93
2023-06-03T00:40:46.305Z,79.92
2023-06-03T00:43:13.753Z,80.00
2023-06-03T00:45:40.839Z,79.69
2023-06-03T00:48:08.138Z,81.05
2023-06-03T00:50:36.031Z,80.97
2023-06-03T00:53:04.197Z,81.20
2023-06-03T00:55:31.397Z,81.08
2023-06-03T00:57:58.655Z,80.55
2023-06-03T01:00:26.376Z,80.98
2023-06-03T01:02:53.663Z,81.24
2023-06-03T01:05:20.854Z,80.29
2023-06-03T01:08:09.129Z,81.09
2023-06-03T01:10:47.490Z,81.46
2023-06-03T01:13:29.772Z,81.68
2023-06-03T01:16:05.968Z,81.28
2023-06-03T01:18:35.354Z,81.64
2023-06-03T01:21:05.041Z,81.94
2023-06-03T01:23:36.168Z,82.08
2023-06-03T01:26:07.788Z,82.41
2023-06-03T01:28:35.148Z,82.16
2023-06-03T01:31:03.723Z,82.03
2023-06-03T01:33:33.722Z,81.92
2023-06-03T01:36:02.274Z,81.93
2023-06-03T01:38:29.739Z,81.60
2023-06-03T01:41:00.538Z,81.84
2023-06-03T01:43:27.752Z,81.74
2023-06-03T01:45:55.228Z,81.87
2023-06-03T01:48:22.653Z,81.89
2023-06-03T01:50:49.968Z,81.79
2023-06-03T01:53:19.134Z,81.74
2023-06-03T01:55:47.788Z,81.74
2023-06-03T01:58:16.814Z,82.07
2023-06-03T02:00:43.788Z,81.94
2023-06-03T02:03:10.942Z,82.74
2023-06-03T02:05:38.019Z,82.73
2023-06-03T02:08:05.418Z,82.89
2023-06-03T02:10:32.692Z,83.12
2023-06-03T02:12:59.600Z,83.03
2023-06-03T02:15:26.575Z,83.08
2023-06-03T02:17:53.587Z,82.51
2023-06-03T02:20:21.539Z,82.76
2023-06-03T02:22:49.525Z,82.67
2023-06-03T02:25:16.604Z,82.67
2023-06-03T02:27:45.068Z,82.93
2023-06-03T02:30:13.450Z,82.81
2023-06-03T02:32:40.944Z,82.48
2023-06-03T02:35:08.672Z,82.26
2023-06-03T02:37:35.759Z,82.53
2023-06-03T02:40:03.078Z,82.54
2023-06-03T02:42:31.264Z,82.35
2023-06-03T02:44:58.293Z,82.59
2023-06-03T02:47:25.491Z,82.88
2023-06-03T02:49:55.012Z,82.61
2023-06-03T02:52:23.927Z,82.64
2023-06-03T02:54:51.330Z,82.95
2023-06-03T02:57:18.713Z,83.21
2023-06-03T02:59:45.786Z,83.08
2023-06-03T03:02:12.887Z,82.97
2023-06-03T03:04:40.064Z,83.17
2023-06-03T03:07:10.455Z,83.73
2023-06-03T03:09:39.709Z,83.53
2023-06-03T03:12:10.265Z,83.34
2023-06-03T03:14:41.260Z,82.84
2023-06-03T03:17:08.499Z,83.73
2023-06-03T03:19:36.678Z,83.94
2023-06-03T03:22:04.402Z,83.83
2023-06-03T03:24:31.983Z,83.97
2023-06-03T03:27:00.846Z,83.88
2023-06-03T03:29:33.764Z,83.81
2023-06-03T03:32:09.209Z,84.00
2023-06-03T03:34:39.958Z,83.73
2023-06-03T03:37:12.467Z,83.27
2023-06-03T03:39:40.053Z,83.42
2023-06-03T03:42:09.679Z,83.40
2023-06-03T03:44:36.795Z,83.40
2023-06-03T03:47:05.584Z,83.44
2023-06-03T03:49:37.268Z,84.10
2023-06-03T03:52:09.927Z,84.47
2023-06-03T03:54:41.439Z,84.44
2023-06-03T03:57:14.357Z,84.41
2023-06-03T03:59:47.229Z,84.25
2023-06-03T04:02:15.309Z,84.81
2023-06-03T04:04:46.088Z,84.86
2023-06-03T04:07:19.317Z,84.78
2023-06-03T04:09:48.413Z,85.38
2023-06-03T04:12:25.659Z,85.44
2023-06-03T04:14:55.132Z,85.40
2023-06-03T04:17:26.792Z,85.55
2023-06-03T04:19:54.292Z,85.35
2023-06-03T04:22:25.721Z,85.18
2023-06-03T04:25:00.378Z,85.37
2023-06-03T04:27:50.051Z,85.49
2023-06-03T04:30:18.394Z,85.49
2023-06-03T04:32:46.162Z,85.57
2023-06-03T04:35:13.239Z,85.94
2023-06-03T04:37:43.739Z,86.08
2023-06-03T04:40:14.853Z,85.81
2023-06-03T04:42:42.745Z,86.22
2023-06-03T04:45:11.263Z,86.23
2023-06-03T04:47:42.788Z,86.48
2023-06-03T04:50:11.486Z,86.59
2023-06-03T04:52:39.576Z,86.33
2023-06-03T04:55:09.900Z,86.72
2023-06-03T04:57:38.907Z,86.93
2023-06-03T05:00:10.846Z,86.98
2023-06-03T05:02:38.249Z,86.90
2023-06-03T05:05:06.694Z,87.82
2023-06-03T05:07:37.166Z,87.77
2023-06-03T05:10:05.048Z,87.93
2023-06-03T05:12:32.434Z,88.04
2023-06-03T05:14:59.505Z,88.17
2023-06-03T05:17:27.721Z,88.49
2023-06-03T05:19:55.035Z,88.43
2023-06-03T05:22:22.124Z,88.36
2023-06-03T05:24:49.155Z,88.25
2023-06-03T05:27:16.376Z,88.41
2023-06-03T05:29:43.589Z,88.40
2023-06-03T05:32:11.067Z,88.40
2023-06-03T05:34:38.136Z,88.17
2023-06-03T05:37:05.678Z,87.90
2023-06-03T05:39:32.844Z,87.58
2023-06-03T05:42:01.256Z,87.33
2023-06-03T05:44:28.365Z,86.89
2023-06-03T05:46:55.587Z,86.18
2023-06-03T05:49:24.552Z,86.33
2023-06-03T05:51:51.678Z,86.13
2023-06-03T05:54:18.747Z,86.04
2023-06-03T05:56:46.703Z,85.51
2023-06-03T05:59:14.125Z,85.54
2023-06-03T06:01:44.816Z,85.65
2023-06-03T06:04:12.771Z,86.14
2023-06-03T06:06:39.846Z,85.59
2023-06-03T06:09:06.885Z,85.69
2023-06-03T06:11:34.613Z,85.26
2023-06-03T06:14:01.692Z,85.17
2023-06-03T06:16:28.749Z,84.98
2023-06-03T06:18:57.811Z,85.52
2023-06-03T06:21:25.699Z,85.14
2023-06-03T06:23:52.811Z,84.76
2023-06-03T06:26:20.054Z,85.15
2023-06-03T06:28:47.585Z,84.86
2023-06-03T06:31:17.202Z,84.91
2023-06-03T06:33:49.526Z,85.14
2023-06-03T06:36:30.930Z,85.17
2023-06-03T06:39:01.112Z,85.87
2023-06-03T06:41:31.165Z,85.42
2023-06-03T06:44:01.505Z,84.81
2023-06-03T06:46:28.807Z,84.39
2023-06-03T06:48:56.085Z,84.55
2023-06-03T06:51:26.214Z,85.38
2023-06-03T06:53:54.216Z,85.07
2023-06-03T06:56:22.517Z,85.20
2023-06-03T06:58:55.969Z,84.17
2023-06-03T07:01:23.457Z,83.60
2023-06-03T07:03:55.615Z,83.09
2023-06-03T07:06:22.907Z,83.94
2023-06-03T07:08:55.589Z,84.50
2023-06-03T07:11:25.109Z,84.34
2023-06-03T07:14:03.511Z,84.37
2023-06-03T07:16:30.593Z,84.00
2023-06-03T07:18:57.955Z,84.07
2023-06-03T07:21:34.157Z,84.32
2023-06-03T07:24:03.453Z,83.95
2023-06-03T07:26:33.441Z,83.85
2023-06-03T07:29:01.738Z,84.30
2023-06-03T07:31:30.905Z,84.26
2023-06-03T07:33:58.451Z,84.29
2023-06-03T07:36:41.729Z,84.16
2023-06-03T07:39:10.314Z,84.19
2023-06-03T07:41:41.790Z,84.04
2023-06-03T07:44:25.564Z,84.35
2023-06-03T07:46:58.945Z,84.12
2023-06-03T07:49:26.248Z,84.20
2023-06-03T07:51:54.154Z,83.87
2023-06-03T07:54:21.432Z,84.06
2023-06-03T07:56:48.864Z,83.51
2023-06-03T07:59:17.321Z,83.29
2023-06-03T08:01:44.428Z,82.67
2023-06-03T08:04:36.568Z,83.41
2023-06-03T08:07:07.162Z,83.46
2023-06-03T08:09:57.151Z,82.62
2023-06-03T08:12:35.131Z,81.30
2023-06-03T08:15:03.142Z,80.97
2023-06-03T08:17:41.013Z,79.92
2023-06-03T08:20:11.459Z,79.83
2023-06-03T08:22:45.656Z,79.64
2023-06-03T08:25:19.699Z,79.56
2023-06-03T08:27:47.944Z,79.37
2023-06-03T08:30:15.706Z,78.66
2023-06-03T08:32:45.953Z,78.51
2023-06-03T08:35:21.453Z,78.02
2023-06-03T08:37:48.597Z,78.43
2023-06-03T08:40:17.691Z,78.31
2023-06-03T08:42:47.001Z,78.32
2023-06-03T08:45:18.282Z,78.73
2023-06-03T08:48:01.821Z,78.52
2023-06-03T08:50:29.854Z,78.49
2023-06-03T08:52:58.250Z,77.95
2023-06-03T08:55:28.849Z,78.13
2023-06-03T08:58:24.841Z,78.24
2023-06-03T09:01:02.578Z,77.89
2023-06-03T09:03:31.095Z,78.21
2023-06-03T09:06:01.825Z,79.63
2023-06-03T09:08:29.264Z,79.11
2023-06-03T09:10:56.850Z,79.79
2023-06-03T09:13:24.719Z,78.25
2023-06-03T09:15:52.779Z,77.83
2023-06-03T09:18:19.937Z,77.47
2023-06-03T09:20:47.036Z,77.73
2023-06-03T09:23:17.879Z,77.68
2023-06-03T09:25:45.144Z,77.52
2023-06-03T09:28:12.763Z,78.17
2023-06-03T09:30:41.037Z,77.34
2023-06-03T09:33:10.637Z,77.65
2023-06-03T09:35:38.125Z,78.04
2023-06-03T09:38:08.404Z,76.40
2023-06-03T09:40:36.101Z,76.63
2023-06-03T09:43:11.059Z,76.09
2023-06-03T09:45:38.091Z,76.09
2023-06-03T09:48:05.300Z,74.82
2023-06-03T09:50:32.856Z,75.09
2023-06-03T09:53:01.352Z,75.42
2023-06-03T09:55:35.541Z,74.34
2023-06-03T09:58:07.616Z,74.13
2023-06-03T10:00:50.230Z,75.75
2023-06-03T10:03:20.044Z,74.35
2023-06-03T10:05:47.348Z,76.32
2023-06-03T10:08:14.337Z,74.47
2023-06-03T10:11:00.943Z,75.47
2023-06-03T10:13:28.254Z,73.44
2023-06-03T10:15:56.150Z,72.93
2023-06-03T10:18:37.316Z,72.16
2023-06-03T10:21:12.050Z,73.06
2023-06-03T10:23:41.273Z,72.30
2023-06-03T10:26:14.858Z,71.82
2023-06-03T10:28:41.946Z,72.04
2023-06-03T10:31:10.099Z,72.75
2023-06-03T10:33:41.197Z,71.26
2023-06-03T10:36:09.045Z,72.04
2023-06-03T10:38:39.847Z,70.89
2023-06-03T10:41:08.973Z,72.11
2023-06-03T10:43:38.270Z,69.65
2023-06-03T10:46:05.756Z,70.58
2023-06-03T10:48:37.877Z,71.28
2023-06-03T10:51:31.888Z,69.70
2023-06-03T10:54:21.408Z,72.03
2023-06-03T10:56:53.644Z,71.90
2023-06-03T10:59:22.931Z,70.14
2023-06-03T11:02:02.011Z,69.12
2023-06-03T11:04:36.750Z,69.55
2023-06-03T11:07:05.992Z,69.99
2023-06-03T11:09:38.779Z,71.03
2023-06-03T11:12:14.780Z,71.06
2023-06-03T11:14:49.851Z,70.97
2023-06-03T11:17:19.733Z,71.01
2023-06-03T11:19:46.950Z,70.34
2023-06-03T11:22:38.803Z,71.66
2023-06-03T11:25:25.164Z,66.43
2023-06-03T11:27:52.338Z,71.88
2023-06-03T11:30:19.680Z,70.05
2023-06-03T11:33:10.714Z,69.75
2023-06-03T11:35:37.753Z,68.92
2023-06-03T11:38:05.259Z,71.45
2023-06-03T11:40:45.562Z,72.58
2023-06-03T11:43:13.089Z,69.81
2023-06-03T11:45:40.288Z,69.00
2023-06-03T11:48:10.574Z,69.44
2023-06-03T11:50:55.235Z,70.62
2023-06-03T11:53:33.002Z,68.36
2023-06-03T11:56:09.576Z,68.19
2023-06-03T11:58:38.450Z,69.50
2023-06-03T12:01:18.316Z,68.56
2023-06-03T12:04:02.001Z,66.39
2023-06-03T12:06:36.975Z,67.45
2023-06-03T12:09:04.340Z,71.50
2023-06-03T12:11:33.178Z,70.10
2023-06-03T12:14:02.595Z,68.19
2023-06-03T12:16:33.622Z,69.46
2023-06-03T12:19:04.028Z,69.01
2023-06-03T12:21:35.264Z,68.20
2023-06-03T12:24:14.063Z,67.24
2023-06-03T12:26:42.632Z,67.86
2023-06-03T12:29:12.205Z,67.71
2023-06-03T12:31:39.864Z,67.42
2023-06-03T12:34:07.300Z,65.40
2023-06-03T12:36:49.260Z,65.56
2023-06-03T12:39:21.256Z,65.12
2023-06-03T12:41:53.526Z,63.41
2023-06-03T12:44:21.547Z,64.77
2023-06-03T12:47:05.033Z,62.48
2023-06-03T12:49:32.631Z,62.78
2023-06-03T12:52:20.309Z,61.49
2023-06-03T12:54:59.382Z,62.51
2023-06-03T12:57:26.353Z,61.46
2023-06-03T13:00:08.479Z,60.70
2023-06-03T13:02:43.232Z,60.63
2023-06-03T13:05:14.000Z,61.56
2023-06-03T13:07:43.380Z,61.46
2023-06-03T13:10:15.586Z,58.81
2023-06-03T13:12:44.367Z,59.38
2023-06-03T13:15:11.799Z,58.34
2023-06-03T13:17:39.204Z,59.38
2023-06-03T13:20:08.220Z,58.27
2023-06-03T13:22:37.172Z,59.86
2023-06-03T13:25:04.780Z,58.46
2023-06-03T13:27:32.142Z,57.03
2023-06-03T13:29:59.181Z,56.52
2023-06-03T13:32:26.407Z,56.33
2023-06-03T13:34:54.867Z,57.32
2023-06-03T13:37:25.585Z,58.45
2023-06-03T13:39:54.987Z,59.43
2023-06-03T13:42:22.043Z,60.13
2023-06-03T13:44:52.883Z,60.25
2023-06-03T13:47:22.084Z,60.97
2023-06-03T13:49:49.230Z,60.87
2023-06-03T13:52:17.989Z,61.19
2023-06-03T13:54:47.365Z,61.13
2023-06-03T13:57:14.624Z,62.69
2023-06-03T13:59:41.651Z,63.20
2023-06-03T14:02:13.699Z,61.17
2023-06-03T14:04:41.368Z,61.75
2023-06-03T14:07:10.919Z,59.92
2023-06-03T14:09:38.394Z,61.02
2023-06-03T14:12:06.266Z,60.55
2023-06-03T14:14:33.319Z,61.38
2023-06-03T14:17:00.358Z,60.17
2023-06-03T14:19:27.472Z,60.45
2023-06-03T14:21:54.607Z,63.36
2023-06-03T14:24:21.668Z,59.26
2023-06-03T14:26:48.692Z,56.84
2023-06-03T14:29:15.830Z,58.58
2023-06-03T14:31:44.762Z,56.83
2023-06-03T14:34:14.762Z,59.51
2023-06-03T14:36:41.756Z,59.59
2023-06-03T14:39:08.812Z,61.17
2023-06-03T14:41:36.304Z,59.37
2023-06-03T14:44:03.345Z,60.30
2023-06-03T14:46:30.678Z,56.87
2023-06-03T14:49:07.229Z,59.74
2023-06-03T14:51:34.265Z,60.78
2023-06-03T14:54:01.375Z,61.28
2023-06-03T14:56:28.444Z,59.70
2023-06-03T14:58:56.917Z,62.82
2023-06-03T15:01:27.860Z,63.00
2023-06-03T15:03:55.515Z,62.87
2023-06-03T15:06:22.530Z,63.12
2023-06-03T15:08:49.701Z,64.25
2023-06-03T15:11:19.669Z,63.70
2023-06-03T15:13:46.735Z,66.01
2023-06-03T15:16:13.795Z,59.78
2023-06-03T15:18:43.887Z,61.58
2023-06-03T15:21:11.150Z,64.99
2023-06-03T15:23:38.388Z,64.31
2023-06-03T15:26:05.787Z,63.39
2023-06-03T15:28:32.919Z,63.63
2023-06-03T15:31:00.319Z,63.63
2023-06-03T15:33:31.130Z,62.74
2023-06-03T15:36:04.228Z,65.15
2023-06-03T15:38:32.267Z,63.01
2023-06-03T15:40:59.376Z,64.67
2023-06-03T15:43:26.587Z,65.14
2023-06-03T15:45:53.704Z,64.59
2023-06-03T15:48:20.961Z,64.09
2023-06-03T15:50:51.316Z,67.04
2023-06-03T15:53:19.462Z,66.41
2023-06-03T15:55:46.661Z,65.41
2023-06-03T15:58:13.831Z,65.02
2023-06-03T16:00:41.112Z,64.65
2023-06-03T16:03:08.854Z,62.99
2023-06-03T16:05:36.560Z,64.29
2023-06-03T16:08:03.580Z,62.29
2023-06-03T16:10:31.106Z,63.67
2023-06-03T16:13:00.592Z,64.00
2023-06-03T16:15:27.618Z,63.54
2023-06-03T16:17:54.618Z,64.74
2023-06-03T16:20:22.299Z,65.04
2023-06-03T16:22:50.512Z,59.89
2023-06-03T16:25:17.459Z,61.18
2023-06-03T16:27:46.076Z,61.93
2023-06-03T16:30:13.553Z,62.79
2023-06-03T16:32:40.547Z,63.35
2023-06-03T16:35:08.063Z,63.33
2023-06-03T16:37:35.213Z,62.84
2023-06-03T16:40:02.322Z,62.68
2023-06-03T16:42:30.791Z,62.86
2023-06-03T16:44:57.980Z,62.99
2023-06-03T16:47:25.061Z,64.35
2023-06-03T16:49:52.206Z,65.50
2023-06-03T16:52:20.116Z,64.96
2023-06-03T16:54:47.153Z,65.20
2023-06-03T16:57:16.061Z,65.13
2023-06-03T16:59:43.250Z,66.29
2023-06-03T17:02:10.217Z,65.80
2023-06-03T17:04:37.243Z,65.68
2023-06-03T17:07:04.478Z,66.03
2023-06-03T17:09:31.500Z,66.39
2023-06-03T17:11:58.575Z,66.78
2023-06-03T17:14:25.685Z,67.10
2023-06-03T17:16:52.825Z,66.87
2023-06-03T17:19:19.990Z,66.77
2023-06-03T17:21:47.128Z,65.82
2023-06-03T17:24:14.269Z,66.58
2023-06-03T17:26:41.286Z,66.49
2023-06-03T17:29:08.643Z,67.03
2023-06-03T17:31:40.478Z,67.90
2023-06-03T17:34:07.539Z,67.82
2023-06-03T17:36:34.681Z,69.18
2023-06-03T17:39:02.411Z,69.50
2023-06-03T17:41:29.636Z,68.97
2023-06-03T17:43:59.750Z,68.72
2023-06-03T17:46:29.616Z,69.39
2023-06-03T17:48:56.930Z,68.33
2023-06-03T17:51:23.962Z,65.23
2023-06-03T17:53:53.405Z,67.30
2023-06-03T17:56:20.528Z,67.09
2023-06-03T17:58:47.653Z,67.16
2023-06-03T18:01:14.672Z,67.53
2023-06-03T18:03:44.311Z,67.99
2023-06-03T18:06:11.664Z,68.70
2023-06-03T18:08:38.622Z,69.58
2023-06-03T18:11:06.025Z,70.00
2023-06-03T18:13:33.079Z,69.75
2023-06-03T18:16:00.140Z,70.49
2023-06-03T18:18:27.367Z,70.33
2023-06-03T18:20:54.531Z,70.40
2023-06-03T18:23:22.934Z,69.58
2023-06-03T18:25:50.477Z,70.20
2023-06-03T18:28:17.480Z,70.05
2023-06-03T18:30:44.553Z,69.92
2023-06-03T18:33:11.596Z,70.56
2023-06-03T18:35:41.668Z,71.30
2023-06-03T18:38:08.816Z,71.54
2023-06-03T18:40:36.089Z,71.76
2023-06-03T18:43:03.291Z,71.83
2023-06-03T18:45:30.390Z,72.46
2023-06-03T18:47:57.553Z,72.76
2023-06-03T18:50:24.581Z,73.08
2023-06-03T18:52:51.787Z,73.78
2023-06-03T18:55:18.913Z,74.14
2023-06-03T18:57:46.449Z,74.06
2023-06-03T19:00:13.812Z,73.97
2023-06-03T19:02:40.900Z,74.26
2023-06-03T19:05:08.287Z,74.62
2023-06-03T19:07:35.512Z,75.29
2023-06-03T19:10:02.555Z,75.46
2023-06-03T19:12:30.311Z,75.67
2023-06-03T19:14:57.477Z,75.72
2023-06-03T19:17:25.276Z,75.88
2023-06-03T19:19:52.390Z,75.97
2023-06-03T19:22:19.413Z,76.36
2023-06-03T19:24:47.629Z,76.55
2023-06-03T19:27:14.680Z,76.29
2023-06-03T19:29:41.682Z,75.73
2023-06-03T19:32:09.291Z,76.07
2023-06-03T19:34:36.272Z,75.08
2023-06-03T19:37:07.393Z,75.53
2023-06-03T19:39:34.777Z,74.57
2023-06-03T19:42:01.813Z,74.78
2023-06-03T19:44:28.898Z,74.27
2023-06-03T19:46:58.007Z,73.66
2023-06-03T19:49:25.945Z,73.75
2023-06-03T19:51:52.991Z,73.93
2023-06-03T19:54:21.291Z,74.38
2023-06-03T19:56:49.564Z,74.99
2023-06-03T19:59:19.912Z,74.55
2023-06-03T20:01:47.030Z,73.91
2023-06-03T20:04:14.194Z,73.56
2023-06-03T20:06:41.309Z,72.74
2023-06-03T20:09:08.397Z,73.44
2023-06-03T20:11:37.545Z,72.97
2023-06-03T20:14:04.691Z,72.88
2023-06-03T20:16:31.782Z,72.66
2023-06-03T20:18:59.118Z,73.15
2023-06-03T20:21:26.652Z,73.63
2023-06-03T20:23:56.410Z,73.42
2023-06-03T20:26:26.160Z,73.98
2023-06-03T20:28:58.956Z,73.85
2023-06-03T20:31:26.115Z,73.96
2023-06-03T20:33:55.553Z,74.04
2023-06-03T20:36:25.524Z,73.88
2023-06-03T20:38:52.682Z,74.24
2023-06-03T20:41:19.750Z,73.95
2023-06-03T20:43:47.360Z,73.75
2023-06-03T20:46:14.538Z,73.40
2023-06-03T20:48:41.654Z,74.01
2023-06-03T20:51:09.056Z,74.22
2023-06-03T20:53:36.212Z,74.12
2023-06-03T20:56:03.467Z,74.04
2023-06-03T20:58:30.841Z,73.63
2023-06-03T21:01:02.289Z,73.49
2023-06-03T21:03:29.382Z,73.78
2023-06-03T21:05:56.419Z,73.83
2023-06-03T21:08:23.431Z,73.30
2023-06-03T21:10:50.713Z,72.91
2023-06-03T21:13:17.943Z,73.55
2023-06-03T21:15:45.064Z,73.18
2023-06-03T21:18:12.462Z,73.33
2023-06-03T21:20:39.529Z,73.31
2023-06-03T21:23:06.621Z,73.72
2023-06-03T21:25:36.059Z,74.57
2023-06-03T21:28:03.323Z,75.02
2023-06-03T21:30:30.341Z,75.55
2023-06-03T21:32:57.425Z,75.56
2023-06-03T21:35:24.484Z,75.63
2023-06-03T21:37:51.552Z,75.46
2023-06-03T21:40:18.702Z,75.62
2023-06-03T21:42:48.131Z,75.35
2023-06-03T21:45:15.301Z,75.46
2023-06-03T21:47:42.429Z,75.91
2023-06-03T21:50:09.766Z,76.52
2023-06-03T21:52:36.874Z,77.88
2023-06-03T21:55:04.542Z,78.20
2023-06-03T21:57:34.183Z,78.24
2023-06-03T22:00:01.550Z,78.74
2023-06-03T22:05:28.675Z,77.98
2023-06-03T22:07:55.800Z,77.93
2023-06-03T22:10:22.779Z,78.29
2023-06-03T22:12:52.883Z,78.20
2023-06-03T22:15:20.430Z,78.32
2023-06-03T22:17:47.547Z,78.69
2023-06-03T22:20:21.472Z,79.14
2023-06-03T22:23:02.307Z,79.15
2023-06-03T22:25:34.866Z,80.09
2023-06-03T22:28:02.272Z,80.83
2023-06-03T22:30:29.262Z,80.53
2023-06-03T22:32:56.395Z,80.50
2023-06-03T22:35:26.231Z,80.50
2023-06-03T22:37:53.292Z,80.07
2023-06-03T22:40:20.276Z,80.00
2023-06-03T22:42:47.285Z,78.42
2023-06-03T22:45:14.819Z,79.29
2023-06-03T22:47:42.341Z,78.96
2023-06-03T22:50:09.792Z,79.06
2023-06-03T22:52:37.294Z,78.26
2023-06-03T22:55:05.089Z,78.49
2023-06-03T22:57:32.104Z,78.77
2023-06-03T22:59:59.259Z,78.13
2023-06-03T23:02:26.277Z,78.18
2023-06-03T23:05:13.924Z,77.98
2023-06-03T23:08:03.224Z,78.57
2023-06-03T23:10:31.424Z,78.47
2023-06-03T23:12:58.361Z,78.52
2023-06-03T23:15:25.498Z,78.17
2023-06-03T23:17:54.406Z,78.07
2023-06-03T23:20:23.553Z,77.76
2023-06-03T23:22:50.766Z,77.79
2023-06-03T23:25:17.995Z,77.07
2023-06-03T23:27:45.511Z,76.21
2023-06-03T23:30:13.939Z,76.33
2023-06-03T23:32:42.331Z,76.30
2023-06-03T23:35:10.150Z,76.79
2023-06-03T23:37:40.716Z,77.05
2023-06-03T23:40:14.169Z,76.81
2023-06-03T23:42:44.067Z,76.97
2023-06-03T23:45:12.206Z,77.26
2023-06-03T23:47:39.501Z,77.49
2023-06-03T23:50:07.412Z,77.24
2023-06-03T23:52:34.419Z,76.99
2023-06-03T23:55:04.442Z,77.03
2023-06-03T23:57:31.663Z,77.43
